sensor_id;sensor_type;location;lat;lon;timestamp;temperature;humidity
19652;DHT22;9974;52.146;14.668;2022-07-29T00:00:03;14.40;99.90
19652;DHT22;9974;52.146;14.668;2022-07-29T00:02:30;13.40;99.90
19652;DHT22;9974;52.146;14.668;2022-07-29T00:04:57;14.10;99.90
19652;DHT22;9974;52.146;14.668;2022-07-29T00:07:23;13.90;99.90
19652;DHT22;9974;52.146;14.668;2022-07-29T00:09:49;14.40;99.90
19652;DHT22;9974;52.146;14.668;2022-07-29T00:12:15;14.30;99.90
19652;DHT22;9974;52.146;14.668;2022-07-29T00:14:41;14.20;99.90
19652;DHT22;9974;52.146;14.668;2022-07-29T00:24:25;13.70;99.90
19652;DHT22;9974;52.146;14.668;2022-07-29T00:26:51;14.30;99.90
19652;DHT22;9974;52.146;14.668;2022-07-29T00:34:09;13.80;99.90
19652;DHT22;9974;52.146;14.668;2022-07-29T00:36:56;13.70;99.90
19652;DHT22;9974;52.146;14.668;2022-07-29T00:44:14;13.30;99.90
19652;DHT22;9974;52.146;14.668;2022-07-29T00:51:35;13.60;99.90
19652;DHT22;9974;52.146;14.668;2022-07-29T00:54:02;13.30;99.90
19652;DHT22;9974;52.146;14.668;2022-07-29T00:56:33;13.50;99.90
19652;DHT22;9974;52.146;14.668;2022-07-29T00:58:59;13.60;99.90
19652;DHT22;9974;52.146;14.668;2022-07-29T01:01:26;13.70;99.90
19652;DHT22;9974;52.146;14.668;2022-07-29T01:03:52;13.80;99.90
19652;DHT22;9974;52.146;14.668;2022-07-29T01:06:18;13.50;99.90
19652;DHT22;9974;52.146;14.668;2022-07-29T01:08:45;13.70;99.90
19652;DHT22;9974;52.146;14.668;2022-07-29T01:11:12;13.20;99.90
19652;DHT22;9974;52.146;14.668;2022-07-29T01:16:12;13.30;99.90
19652;DHT22;9974;52.146;14.668;2022-07-29T01:18:46;13.30;99.90
19652;DHT22;9974;52.146;14.668;2022-07-29T01:21:50;13.30;99.90
19652;DHT22;9974;52.146;14.668;2022-07-29T01:24:33;13.50;99.90
19652;DHT22;9974;52.146;14.668;2022-07-29T01:27:24;13.60;99.90
19652;DHT22;9974;52.146;14.668;2022-07-29T01:29:59;13.10;99.90
19652;DHT22;9974;52.146;14.668;2022-07-29T01:32:29;12.90;99.90
19652;DHT22;9974;52.146;14.668;2022-07-29T01:38:05;13.10;99.90
19652;DHT22;9974;52.146;14.668;2022-07-29T01:41:02;13.30;99.90
19652;DHT22;9974;52.146;14.668;2022-07-29T01:43:37;13.20;99.90
19652;DHT22;9974;52.146;14.668;2022-07-29T01:46:11;12.90;99.90
19652;DHT22;9974;52.146;14.668;2022-07-29T01:48:43;13.10;99.90
19652;DHT22;9974;52.146;14.668;2022-07-29T01:51:18;12.80;99.90
19652;DHT22;9974;52.146;14.668;2022-07-29T01:53:55;12.80;99.90
19652;DHT22;9974;52.146;14.668;2022-07-29T01:56:28;12.90;99.90
19652;DHT22;9974;52.146;14.668;2022-07-29T01:58:57;13.10;99.90
19652;DHT22;9974;52.146;14.668;2022-07-29T02:01:24;12.90;99.90
19652;DHT22;9974;52.146;14.668;2022-07-29T02:03:50;13.00;99.90
19652;DHT22;9974;52.146;14.668;2022-07-29T02:08:47;13.10;99.90
19652;DHT22;9974;52.146;14.668;2022-07-29T02:11:14;12.70;99.90
19652;DHT22;9974;52.146;14.668;2022-07-29T02:13:41;12.70;99.90
19652;DHT22;9974;52.146;14.668;2022-07-29T02:16:08;12.20;99.90
19652;DHT22;9974;52.146;14.668;2022-07-29T02:18:37;12.80;99.90
19652;DHT22;9974;52.146;14.668;2022-07-29T02:21:04;12.80;99.90
19652;DHT22;9974;52.146;14.668;2022-07-29T02:23:33;12.60;99.90
19652;DHT22;9974;52.146;14.668;2022-07-29T02:26:00;12.90;99.90
19652;DHT22;9974;52.146;14.668;2022-07-29T02:28:28;12.60;99.90
19652;DHT22;9974;52.146;14.668;2022-07-29T02:30:58;12.60;99.90
19652;DHT22;9974;52.146;14.668;2022-07-29T02:33:26;12.60;99.90
19652;DHT22;9974;52.146;14.668;2022-07-29T02:35:54;12.90;99.90
19652;DHT22;9974;52.146;14.668;2022-07-29T02:38:21;12.50;99.90
19652;DHT22;9974;52.146;14.668;2022-07-29T02:41:10;12.50;99.90
19652;DHT22;9974;52.146;14.668;2022-07-29T02:43:37;12.60;99.90
19652;DHT22;9974;52.146;14.668;2022-07-29T02:46:05;12.20;99.90
19652;DHT22;9974;52.146;14.668;2022-07-29T02:48:50;12.50;99.90
19652;DHT22;9974;52.146;14.668;2022-07-29T02:51:23;12.50;99.90
19652;DHT22;9974;52.146;14.668;2022-07-29T02:53:53;12.60;99.90
19652;DHT22;9974;52.146;14.668;2022-07-29T02:56:25;12.60;99.90
19652;DHT22;9974;52.146;14.668;2022-07-29T02:58:58;12.40;99.90
19652;DHT22;9974;52.146;14.668;2022-07-29T03:01:31;12.60;99.90
19652;DHT22;9974;52.146;14.668;2022-07-29T03:04:01;12.60;99.90
19652;DHT22;9974;52.146;14.668;2022-07-29T03:06:30;12.60;99.90
19652;DHT22;9974;52.146;14.668;2022-07-29T03:08:57;12.80;99.90
19652;DHT22;9974;52.146;14.668;2022-07-29T03:11:24;12.80;99.90
19652;DHT22;9974;52.146;14.668;2022-07-29T03:13:51;12.50;99.90
19652;DHT22;9974;52.146;14.668;2022-07-29T03:16:19;12.50;99.90
19652;DHT22;9974;52.146;14.668;2022-07-29T03:18:44;11.90;99.90
19652;DHT22;9974;52.146;14.668;2022-07-29T03:21:10;12.20;99.90
19652;DHT22;9974;52.146;14.668;2022-07-29T03:28:29;12.60;99.90
19652;DHT22;9974;52.146;14.668;2022-07-29T03:40:46;12.80;99.90
19652;DHT22;9974;52.146;14.668;2022-07-29T03:43:16;12.80;99.90
19652;DHT22;9974;52.146;14.668;2022-07-29T03:45:45;13.30;99.90
19652;DHT22;9974;52.146;14.668;2022-07-29T03:48:16;12.70;99.90
19652;DHT22;9974;52.146;14.668;2022-07-29T03:50:44;13.30;99.90
19652;DHT22;9974;52.146;14.668;2022-07-29T03:53:10;13.10;99.90
19652;DHT22;9974;52.146;14.668;2022-07-29T03:55:41;13.20;99.90
19652;DHT22;9974;52.146;14.668;2022-07-29T03:58:09;13.40;99.90
19652;DHT22;9974;52.146;14.668;2022-07-29T04:00:36;13.40;99.90
19652;DHT22;9974;52.146;14.668;2022-07-29T04:03:04;13.50;99.90
19652;DHT22;9974;52.146;14.668;2022-07-29T04:07:56;13.70;99.90
19652;DHT22;9974;52.146;14.668;2022-07-29T04:12:48;13.80;99.90
19652;DHT22;9974;52.146;14.668;2022-07-29T04:15:14;14.00;99.90
19652;DHT22;9974;52.146;14.668;2022-07-29T04:17:40;14.40;99.90
19652;DHT22;9974;52.146;14.668;2022-07-29T04:22:32;14.60;99.90
19652;DHT22;9974;52.146;14.668;2022-07-29T04:27:24;14.30;99.90
19652;DHT22;9974;52.146;14.668;2022-07-29T04:39:36;14.60;99.90
19652;DHT22;9974;52.146;14.668;2022-07-29T04:44:28;14.70;99.90
19652;DHT22;9974;52.146;14.668;2022-07-29T04:46:54;14.70;99.90
19652;DHT22;9974;52.146;14.668;2022-07-29T04:56:38;15.30;99.90
19652;DHT22;9974;52.146;14.668;2022-07-29T04:59:03;14.90;99.90
19652;DHT22;9974;52.146;14.668;2022-07-29T05:01:29;15.10;99.90
19652;DHT22;9974;52.146;14.668;2022-07-29T05:03:54;15.20;99.90
19652;DHT22;9974;52.146;14.668;2022-07-29T05:08:46;15.10;99.90
19652;DHT22;9974;52.146;14.668;2022-07-29T05:11:12;15.40;99.90
19652;DHT22;9974;52.146;14.668;2022-07-29T05:16:04;15.50;99.90
19652;DHT22;9974;52.146;14.668;2022-07-29T05:20:56;15.60;99.90
19652;DHT22;9974;52.146;14.668;2022-07-29T05:28:15;15.80;99.90
19652;DHT22;9974;52.146;14.668;2022-07-29T05:30:41;15.20;99.90
19652;DHT22;9974;52.146;14.668;2022-07-29T05:40:26;15.50;99.90
19652;DHT22;9974;52.146;14.668;2022-07-29T05:42:51;16.00;99.90
19652;DHT22;9974;52.146;14.668;2022-07-29T05:57:29;16.20;99.90
19652;DHT22;9974;52.146;14.668;2022-07-29T05:59:55;16.40;99.90
19652;DHT22;9974;52.146;14.668;2022-07-29T06:02:20;16.20;99.90
19652;DHT22;9974;52.146;14.668;2022-07-29T06:07:13;16.30;99.90
19652;DHT22;9974;52.146;14.668;2022-07-29T06:09:39;16.60;99.90
19652;DHT22;9974;52.146;14.668;2022-07-29T06:16:57;16.80;99.90
19652;DHT22;9974;52.146;14.668;2022-07-29T06:24:15;16.70;99.90
19652;DHT22;9974;52.146;14.668;2022-07-29T06:26:41;16.90;99.90
19652;DHT22;9974;52.146;14.668;2022-07-29T06:29:08;17.20;99.90
19652;DHT22;9974;52.146;14.668;2022-07-29T06:31:36;17.30;99.90
19652;DHT22;9974;52.146;14.668;2022-07-29T06:34:03;17.00;99.90
19652;DHT22;9974;52.146;14.668;2022-07-29T06:36:29;17.70;99.90
19652;DHT22;9974;52.146;14.668;2022-07-29T06:46:15;17.40;99.90
19652;DHT22;9974;52.146;14.668;2022-07-29T06:48:46;17.70;99.90
19652;DHT22;9974;52.146;14.668;2022-07-29T06:51:15;17.00;99.90
19652;DHT22;9974;52.146;14.668;2022-07-29T06:58:34;18.00;99.90
19652;DHT22;9974;52.146;14.668;2022-07-29T07:01:03;18.40;99.90
19652;DHT22;9974;52.146;14.668;2022-07-29T07:10:49;18.50;99.90
19652;DHT22;9974;52.146;14.668;2022-07-29T07:13:15;18.40;99.90
19652;DHT22;9974;52.146;14.668;2022-07-29T07:15:43;18.70;99.90
19652;DHT22;9974;52.146;14.668;2022-07-29T07:20:36;18.90;99.90
19652;DHT22;9974;52.146;14.668;2022-07-29T07:23:02;18.80;99.90
19652;DHT22;9974;52.146;14.668;2022-07-29T07:25:28;18.70;99.90
19652;DHT22;9974;52.146;14.668;2022-07-29T07:27:54;19.30;99.90
19652;DHT22;9974;52.146;14.668;2022-07-29T07:30:20;19.20;99.90
19652;DHT22;9974;52.146;14.668;2022-07-29T07:32:46;19.10;99.90
19652;DHT22;9974;52.146;14.668;2022-07-29T07:37:39;19.30;99.90
19652;DHT22;9974;52.146;14.668;2022-07-29T07:40:06;19.40;99.90
19652;DHT22;9974;52.146;14.668;2022-07-29T07:42:33;19.60;99.90
19652;DHT22;9974;52.146;14.668;2022-07-29T07:44:59;19.60;99.90
19652;DHT22;9974;52.146;14.668;2022-07-29T07:49:51;19.30;99.90
19652;DHT22;9974;52.146;14.668;2022-07-29T07:52:20;19.70;99.90
19652;DHT22;9974;52.146;14.668;2022-07-29T07:54:46;20.00;99.90
19652;DHT22;9974;52.146;14.668;2022-07-29T07:57:13;20.00;99.90
19652;DHT22;9974;52.146;14.668;2022-07-29T07:59:39;19.70;99.90
19652;DHT22;9974;52.146;14.668;2022-07-29T08:06:58;20.20;99.90
19652;DHT22;9974;52.146;14.668;2022-07-29T08:09:26;20.20;99.90
19652;DHT22;9974;52.146;14.668;2022-07-29T08:11:52;20.50;99.90
19652;DHT22;9974;52.146;14.668;2022-07-29T08:14:18;20.70;99.90
19652;DHT22;9974;52.146;14.668;2022-07-29T08:16:44;20.50;99.90
19652;DHT22;9974;52.146;14.668;2022-07-29T08:19:10;20.20;99.90
19652;DHT22;9974;52.146;14.668;2022-07-29T08:24:02;20.40;99.90
19652;DHT22;9974;52.146;14.668;2022-07-29T08:31:40;21.40;99.90
19652;DHT22;9974;52.146;14.668;2022-07-29T08:36:32;21.70;99.90
19652;DHT22;9974;52.146;14.668;2022-07-29T08:38:59;21.70;99.90
19652;DHT22;9974;52.146;14.668;2022-07-29T08:41:25;22.00;99.90
19652;DHT22;9974;52.146;14.668;2022-07-29T08:43:51;22.00;99.90
19652;DHT22;9974;52.146;14.668;2022-07-29T08:46:18;21.80;99.90
19652;DHT22;9974;52.146;14.668;2022-07-29T08:51:17;22.10;99.90
19652;DHT22;9974;52.146;14.668;2022-07-29T08:53:46;22.10;99.90
19652;DHT22;9974;52.146;14.668;2022-07-29T08:56:14;22.20;99.90
19652;DHT22;9974;52.146;14.668;2022-07-29T08:58:45;22.20;99.90
19652;DHT22;9974;52.146;14.668;2022-07-29T09:01:16;22.30;99.90
19652;DHT22;9974;52.146;14.668;2022-07-29T09:03:43;22.90;99.90
19652;DHT22;9974;52.146;14.668;2022-07-29T09:06:13;22.60;99.90
19652;DHT22;9974;52.146;14.668;2022-07-29T09:11:06;23.30;99.90
19652;DHT22;9974;52.146;14.668;2022-07-29T09:13:33;22.80;99.90
19652;DHT22;9974;52.146;14.668;2022-07-29T09:15:58;22.90;99.90
19652;DHT22;9974;52.146;14.668;2022-07-29T09:18:42;22.90;99.90
19652;DHT22;9974;52.146;14.668;2022-07-29T09:21:10;23.00;99.90
19652;DHT22;9974;52.146;14.668;2022-07-29T09:24:14;23.20;99.90
19652;DHT22;9974;52.146;14.668;2022-07-29T09:26:44;22.90;99.90
19652;DHT22;9974;52.146;14.668;2022-07-29T09:29:12;23.40;99.90
19652;DHT22;9974;52.146;14.668;2022-07-29T09:31:40;23.50;99.90
19652;DHT22;9974;52.146;14.668;2022-07-29T09:34:08;23.50;99.90
19652;DHT22;9974;52.146;14.668;2022-07-29T09:36:46;23.70;99.90
19652;DHT22;9974;52.146;14.668;2022-07-29T09:39:14;23.90;99.90
19652;DHT22;9974;52.146;14.668;2022-07-29T09:41:49;24.20;99.90
19652;DHT22;9974;52.146;14.668;2022-07-29T09:47:02;24.50;99.90
19652;DHT22;9974;52.146;14.668;2022-07-29T09:49:36;24.50;99.90
19652;DHT22;9974;52.146;14.668;2022-07-29T09:52:15;24.40;99.90
19652;DHT22;9974;52.146;14.668;2022-07-29T09:54:41;24.60;99.90
19652;DHT22;9974;52.146;14.668;2022-07-29T09:57:08;24.50;99.90
19652;DHT22;9974;52.146;14.668;2022-07-29T10:02:14;25.10;99.90
19652;DHT22;9974;52.146;14.668;2022-07-29T10:04:41;25.20;99.90
19652;DHT22;9974;52.146;14.668;2022-07-29T10:12:11;25.60;98.30
19652;DHT22;9974;52.146;14.668;2022-07-29T10:14:40;25.70;97.90
19652;DHT22;9974;52.146;14.668;2022-07-29T10:17:08;25.80;98.30
19652;DHT22;9974;52.146;14.668;2022-07-29T10:19:36;25.90;98.20
19652;DHT22;9974;52.146;14.668;2022-07-29T10:22:05;26.10;96.10
19652;DHT22;9974;52.146;14.668;2022-07-29T10:27:02;26.30;95.40
19652;DHT22;9974;52.146;14.668;2022-07-29T10:32:11;26.50;93.20
19652;DHT22;9974;52.146;14.668;2022-07-29T10:41:12;26.40;93.50
19652;DHT22;9974;52.146;14.668;2022-07-29T10:44:01;26.50;93.00
19652;DHT22;9974;52.146;14.668;2022-07-29T10:46:28;26.70;92.60
19652;DHT22;9974;52.146;14.668;2022-07-29T10:49:15;26.60;91.90
19652;DHT22;9974;52.146;14.668;2022-07-29T10:52:06;26.60;91.20
19652;DHT22;9974;52.146;14.668;2022-07-29T10:57:27;26.60;91.20
19652;DHT22;9974;52.146;14.668;2022-07-29T11:05:17;27.00;90.80
19652;DHT22;9974;52.146;14.668;2022-07-29T11:10:35;27.10;86.80
19652;DHT22;9974;52.146;14.668;2022-07-29T11:23:22;27.30;82.80
19652;DHT22;9974;52.146;14.668;2022-07-29T11:31:39;27.20;82.60
19652;DHT22;9974;52.146;14.668;2022-07-29T11:34:26;27.30;81.50
19652;DHT22;9974;52.146;14.668;2022-07-29T11:39:36;27.40;80.50
19652;DHT22;9974;52.146;14.668;2022-07-29T11:45:21;27.80;80.10
19652;DHT22;9974;52.146;14.668;2022-07-29T11:50:15;28.30;77.80
19652;DHT22;9974;52.146;14.668;2022-07-29T11:52:46;28.80;75.40
19652;DHT22;9974;52.146;14.668;2022-07-29T11:55:15;29.60;74.00
19652;DHT22;9974;52.146;14.668;2022-07-29T11:57:56;30.40;71.70
19652;DHT22;9974;52.146;14.668;2022-07-29T12:00:42;31.10;69.40
19652;DHT22;9974;52.146;14.668;2022-07-29T12:03:12;31.90;67.00
19652;DHT22;9974;52.146;14.668;2022-07-29T12:05:49;32.20;65.20
19652;DHT22;9974;52.146;14.668;2022-07-29T12:08:20;32.60;62.00
19652;DHT22;9974;52.146;14.668;2022-07-29T12:10:48;32.40;58.90
19652;DHT22;9974;52.146;14.668;2022-07-29T12:13:17;32.30;58.40
19652;DHT22;9974;52.146;14.668;2022-07-29T12:15:54;31.60;57.00
19652;DHT22;9974;52.146;14.668;2022-07-29T12:21:02;30.30;59.40
19652;DHT22;9974;52.146;14.668;2022-07-29T12:23:29;30.20;61.20
19652;DHT22;9974;52.146;14.668;2022-07-29T12:25:57;30.00;61.10
19652;DHT22;9974;52.146;14.668;2022-07-29T12:33:21;29.70;61.70
19652;DHT22;9974;52.146;14.668;2022-07-29T12:35:51;29.70;62.20
19652;DHT22;9974;52.146;14.668;2022-07-29T12:40:46;29.60;62.30
19652;DHT22;9974;52.146;14.668;2022-07-29T12:43:15;29.90;62.30
19652;DHT22;9974;52.146;14.668;2022-07-29T12:45:53;30.20;60.70
19652;DHT22;9974;52.146;14.668;2022-07-29T12:48:44;30.40;61.40
19652;DHT22;9974;52.146;14.668;2022-07-29T12:51:11;30.80;58.60
19652;DHT22;9974;52.146;14.668;2022-07-29T12:53:39;32.10;56.60
19652;DHT22;9974;52.146;14.668;2022-07-29T12:56:05;33.50;54.60
19652;DHT22;9974;52.146;14.668;2022-07-29T13:01:17;35.40;51.20
19652;DHT22;9974;52.146;14.668;2022-07-29T13:06:30;36.80;49.90
19652;DHT22;9974;52.146;14.668;2022-07-29T13:09:16;37.30;48.20
19652;DHT22;9974;52.146;14.668;2022-07-29T13:11:48;36.80;48.00
19652;DHT22;9974;52.146;14.668;2022-07-29T13:14:35;35.60;47.80
19652;DHT22;9974;52.146;14.668;2022-07-29T13:17:13;34.00;49.90
19652;DHT22;9974;52.146;14.668;2022-07-29T13:19:52;32.80;51.50
19652;DHT22;9974;52.146;14.668;2022-07-29T13:24:58;31.50;53.30
19652;DHT22;9974;52.146;14.668;2022-07-29T13:27:28;31.00;54.20
19652;DHT22;9974;52.146;14.668;2022-07-29T13:29:57;30.80;53.60
19652;DHT22;9974;52.146;14.668;2022-07-29T13:32:26;30.30;54.60
19652;DHT22;9974;52.146;14.668;2022-07-29T13:37:19;29.90;56.00
19652;DHT22;9974;52.146;14.668;2022-07-29T13:44:40;29.60;55.80
19652;DHT22;9974;52.146;14.668;2022-07-29T13:47:07;29.60;54.90
19652;DHT22;9974;52.146;14.668;2022-07-29T13:49:34;29.40;55.60
19652;DHT22;9974;52.146;14.668;2022-07-29T13:52:00;29.30;56.00
19652;DHT22;9974;52.146;14.668;2022-07-29T13:59:19;28.90;56.40
19652;DHT22;9974;52.146;14.668;2022-07-29T14:01:44;28.90;57.00
19652;DHT22;9974;52.146;14.668;2022-07-29T14:09:04;29.10;56.30
19652;DHT22;9974;52.146;14.668;2022-07-29T14:14:03;28.80;55.80
19652;DHT22;9974;52.146;14.668;2022-07-29T14:40:50;29.10;56.10
19652;DHT22;9974;52.146;14.668;2022-07-29T14:43:15;29.10;55.70
19652;DHT22;9974;52.146;14.668;2022-07-29T14:45:41;29.00;56.00
19652;DHT22;9974;52.146;14.668;2022-07-29T14:52:59;28.90;55.80
19652;DHT22;9974;52.146;14.668;2022-07-29T14:55:26;28.90;55.30
19652;DHT22;9974;52.146;14.668;2022-07-29T14:57:52;28.90;56.40
19652;DHT22;9974;52.146;14.668;2022-07-29T15:00:18;28.70;55.80
19652;DHT22;9974;52.146;14.668;2022-07-29T15:10:02;28.50;56.20
19652;DHT22;9974;52.146;14.668;2022-07-29T15:12:29;28.50;56.30
19652;DHT22;9974;52.146;14.668;2022-07-29T15:17:22;28.50;55.70
19652;DHT22;9974;52.146;14.668;2022-07-29T15:19:47;28.50;55.70
19652;DHT22;9974;52.146;14.668;2022-07-29T15:22:13;28.50;55.70
19652;DHT22;9974;52.146;14.668;2022-07-29T15:34:24;28.70;55.40
19652;DHT22;9974;52.146;14.668;2022-07-29T15:36:52;28.70;55.50
19652;DHT22;9974;52.146;14.668;2022-07-29T15:39:19;28.60;54.70
19652;DHT22;9974;52.146;14.668;2022-07-29T15:41:45;28.60;55.00
19652;DHT22;9974;52.146;14.668;2022-07-29T15:46:37;28.40;55.50
19652;DHT22;9974;52.146;14.668;2022-07-29T15:49:21;28.30;55.00
19652;DHT22;9974;52.146;14.668;2022-07-29T15:51:47;28.20;55.30
19652;DHT22;9974;52.146;14.668;2022-07-29T16:06:23;28.30;55.20
19652;DHT22;9974;52.146;14.668;2022-07-29T16:11:15;28.10;55.10
19652;DHT22;9974;52.146;14.668;2022-07-29T16:18:33;28.00;55.60
19652;DHT22;9974;52.146;14.668;2022-07-29T16:20:59;27.90;55.80
19652;DHT22;9974;52.146;14.668;2022-07-29T16:25:50;27.80;55.40
19652;DHT22;9974;52.146;14.668;2022-07-29T16:28:16;27.80;55.70
19652;DHT22;9974;52.146;14.668;2022-07-29T16:35:34;27.80;56.60
19652;DHT22;9974;52.146;14.668;2022-07-29T16:42:55;27.70;55.70
19652;DHT22;9974;52.146;14.668;2022-07-29T16:45:20;27.70;55.90
19652;DHT22;9974;52.146;14.668;2022-07-29T17:02:23;27.30;55.90
19652;DHT22;9974;52.146;14.668;2022-07-29T17:19:27;27.00;56.60
19652;DHT22;9974;52.146;14.668;2022-07-29T17:21:55;26.70;57.00
19652;DHT22;9974;52.146;14.668;2022-07-29T17:29:13;26.70;56.80
19652;DHT22;9974;52.146;14.668;2022-07-29T17:31:40;26.90;56.60
19652;DHT22;9974;52.146;14.668;2022-07-29T17:34:06;26.70;57.10
19652;DHT22;9974;52.146;14.668;2022-07-29T17:39:04;26.50;57.50
19652;DHT22;9974;52.146;14.668;2022-07-29T17:41:31;26.70;57.70
19652;DHT22;9974;52.146;14.668;2022-07-29T17:43:57;26.50;57.40
19652;DHT22;9974;52.146;14.668;2022-07-29T17:46:24;26.40;57.50
19652;DHT22;9974;52.146;14.668;2022-07-29T17:48:52;26.40;56.70
19652;DHT22;9974;52.146;14.668;2022-07-29T17:53:46;26.40;57.70
19652;DHT22;9974;52.146;14.668;2022-07-29T18:01:05;26.50;58.80
19652;DHT22;9974;52.146;14.668;2022-07-29T18:05:57;26.10;58.60
19652;DHT22;9974;52.146;14.668;2022-07-29T18:10:50;25.90;58.60
19652;DHT22;9974;52.146;14.668;2022-07-29T18:15:42;25.50;59.00
19652;DHT22;9974;52.146;14.668;2022-07-29T18:18:09;25.70;59.00
19652;DHT22;9974;52.146;14.668;2022-07-29T18:35:14;25.40;60.50
19652;DHT22;9974;52.146;14.668;2022-07-29T18:44:59;25.00;61.00
19652;DHT22;9974;52.146;14.668;2022-07-29T18:54:43;24.60;61.40
19652;DHT22;9974;52.146;14.668;2022-07-29T18:57:08;24.70;61.70
19652;DHT22;9974;52.146;14.668;2022-07-29T19:02:01;24.50;61.40
19652;DHT22;9974;52.146;14.668;2022-07-29T19:04:26;24.40;61.50
19652;DHT22;9974;52.146;14.668;2022-07-29T19:09:19;24.40;61.80
19652;DHT22;9974;52.146;14.668;2022-07-29T19:19:03;24.10;62.50
19652;DHT22;9974;52.146;14.668;2022-07-29T19:21:29;24.10;63.00
19652;DHT22;9974;52.146;14.668;2022-07-29T19:40:58;23.40;64.00
19652;DHT22;9974;52.146;14.668;2022-07-29T19:43:23;23.90;64.40
19652;DHT22;9974;52.146;14.668;2022-07-29T19:45:49;23.40;63.90
19652;DHT22;9974;52.146;14.668;2022-07-29T19:48:15;23.20;64.00
19652;DHT22;9974;52.146;14.668;2022-07-29T19:55:34;23.20;64.40
19652;DHT22;9974;52.146;14.668;2022-07-29T19:57:59;23.00;64.60
19652;DHT22;9974;52.146;14.668;2022-07-29T20:02:55;22.90;65.00
19652;DHT22;9974;52.146;14.668;2022-07-29T20:05:21;23.00;65.50
19652;DHT22;9974;52.146;14.668;2022-07-29T20:10:13;22.90;65.90
19652;DHT22;9974;52.146;14.668;2022-07-29T20:12:39;22.90;66.70
19652;DHT22;9974;52.146;14.668;2022-07-29T20:15:07;22.70;66.10
19652;DHT22;9974;52.146;14.668;2022-07-29T20:20:01;23.00;67.00
19652;DHT22;9974;52.146;14.668;2022-07-29T20:22:28;22.60;66.60
19652;DHT22;9974;52.146;14.668;2022-07-29T20:24:54;22.90;67.10
19652;DHT22;9974;52.146;14.668;2022-07-29T20:27:19;22.50;66.70
19652;DHT22;9974;52.146;14.668;2022-07-29T20:37:05;22.30;67.50
19652;DHT22;9974;52.146;14.668;2022-07-29T20:39:35;22.30;67.60
19652;DHT22;9974;52.146;14.668;2022-07-29T20:42:00;22.10;67.60
19652;DHT22;9974;52.146;14.668;2022-07-29T20:54:11;22.00;68.10
19652;DHT22;9974;52.146;14.668;2022-07-29T20:56:36;22.00;68.50
19652;DHT22;9974;52.146;14.668;2022-07-29T20:59:02;21.80;68.30
19652;DHT22;9974;52.146;14.668;2022-07-29T21:03:54;21.90;69.10
19652;DHT22;9974;52.146;14.668;2022-07-29T21:06:20;21.90;68.70
19652;DHT22;9974;52.146;14.668;2022-07-29T21:16:08;21.80;69.40
19652;DHT22;9974;52.146;14.668;2022-07-29T21:18:43;21.70;69.80
19652;DHT22;9974;52.146;14.668;2022-07-29T21:21:12;21.70;69.50
19652;DHT22;9974;52.146;14.668;2022-07-29T21:23:38;21.70;69.50
19652;DHT22;9974;52.146;14.668;2022-07-29T21:26:04;21.70;69.90
19652;DHT22;9974;52.146;14.668;2022-07-29T21:28:30;21.50;70.60
19652;DHT22;9974;52.146;14.668;2022-07-29T21:31:15;21.70;70.50
19652;DHT22;9974;52.146;14.668;2022-07-29T21:33:43;21.70;70.70
19652;DHT22;9974;52.146;14.668;2022-07-29T21:36:11;21.50;70.70
19652;DHT22;9974;52.146;14.668;2022-07-29T21:38:37;21.40;70.90
19652;DHT22;9974;52.146;14.668;2022-07-29T21:41:04;21.60;71.30
19652;DHT22;9974;52.146;14.668;2022-07-29T21:45:57;21.30;71.20
19652;DHT22;9974;52.146;14.668;2022-07-29T21:48:24;21.30;71.30
19652;DHT22;9974;52.146;14.668;2022-07-29T21:50:51;21.10;71.60
19652;DHT22;9974;52.146;14.668;2022-07-29T21:53:17;21.00;72.10
19652;DHT22;9974;52.146;14.668;2022-07-29T21:55:43;21.50;72.40
19652;DHT22;9974;52.146;14.668;2022-07-29T21:58:09;20.90;71.60
19652;DHT22;9974;52.146;14.668;2022-07-29T22:00:36;21.00;72.20
19652;DHT22;9974;52.146;14.668;2022-07-29T22:03:03;21.50;72.00
19652;DHT22;9974;52.146;14.668;2022-07-29T22:07:56;20.90;72.60
19652;DHT22;9974;52.146;14.668;2022-07-29T22:10:26;20.90;72.30
19652;DHT22;9974;52.146;14.668;2022-07-29T22:12:55;21.10;72.60
19652;DHT22;9974;52.146;14.668;2022-07-29T22:15:22;20.90;72.50
19652;DHT22;9974;52.146;14.668;2022-07-29T22:25:06;20.80;73.00
19652;DHT22;9974;52.146;14.668;2022-07-29T22:27:33;21.30;74.40
19652;DHT22;9974;52.146;14.668;2022-07-29T22:29:59;21.10;74.00
19652;DHT22;9974;52.146;14.668;2022-07-29T22:32:25;20.70;73.50
19652;DHT22;9974;52.146;14.668;2022-07-29T22:47:03;20.60;74.40
19652;DHT22;9974;52.146;14.668;2022-07-29T22:49:29;20.90;75.50
19652;DHT22;9974;52.146;14.668;2022-07-29T22:51:55;20.30;74.80
19652;DHT22;9974;52.146;14.668;2022-07-29T22:59:13;20.10;75.40
19652;DHT22;9974;52.146;14.668;2022-07-29T23:04:05;20.50;75.50
19652;DHT22;9974;52.146;14.668;2022-07-29T23:33:18;19.70;79.60
19652;DHT22;9974;52.146;14.668;2022-07-29T23:35:43;19.80;80.40
19652;DHT22;9974;52.146;14.668;2022-07-29T23:38:09;19.50;80.10
19652;DHT22;9974;52.146;14.668;2022-07-29T23:47:53;19.30;85.40
19652;DHT22;9974;52.146;14.668;2022-07-29T23:50:18;19.20;84.70
19652;DHT22;9974;52.146;14.668;2022-07-29T23:52:44;19.70;85.30
19652;DHT22;9974;52.146;14.668;2022-07-29T23:55:11;19.30;87.50
